createdAt,value
2023-01-07T00:00:09.944Z,101370.72
2023-01-07T00:02:38.328Z,101374.53
2023-01-07T00:05:07.616Z,101377.50
2023-01-07T00:07:35.923Z,101375.22
2023-01-07T00:10:05.400Z,101379.06
2023-01-07T00:12:35.080Z,101360.97
2023-01-07T00:15:03.328Z,101361.50
2023-01-07T00:17:31.590Z,101362.97
2023-01-07T00:19:59.815Z,101365.19
2023-01-07T00:22:28.112Z,101364.78
2023-01-07T00:24:56.534Z,101365.16
2023-01-07T00:27:25.532Z,101364.94
2023-01-07T00:29:55.152Z,101363.09
2023-01-07T00:32:43.480Z,101356.56
2023-01-07T00:35:23.058Z,101359.22
2023-01-07T00:37:52.676Z,101361.03
2023-01-07T00:40:22.419Z,101358.22
2023-01-07T00:43:01.419Z,101359.97
2023-01-07T00:45:34.200Z,101360.56
2023-01-07T00:48:05.035Z,101350.91
2023-01-07T00:50:37.747Z,101351.94
2023-01-07T00:53:06.593Z,101348.59
2023-01-07T00:55:34.922Z,101342.28
2023-01-07T00:58:03.314Z,101340.16
2023-01-07T01:00:33.574Z,101340.16
2023-01-07T01:03:02.007Z,101336.59
2023-01-07T01:05:30.305Z,101344.94
2023-01-07T01:07:59.377Z,101347.59
2023-01-07T01:10:27.995Z,101344.28
2023-01-07T01:12:56.346Z,101343.53
2023-01-07T01:15:25.282Z,101348.16
2023-01-07T01:17:55.500Z,101347.94
2023-01-07T01:20:24.085Z,101346.19
2023-01-07T01:22:52.404Z,101356.94
2023-01-07T01:25:20.740Z,101346.16
2023-01-07T01:27:49.080Z,101351.25
2023-01-07T01:30:17.480Z,101346.75
2023-01-07T01:32:45.785Z,101351.19
2023-01-07T01:35:15.709Z,101347.22
2023-01-07T01:37:44.028Z,101350.09
2023-01-07T01:40:13.582Z,101349.25
2023-01-07T01:42:41.901Z,101345.53
2023-01-07T01:45:13.363Z,101344.72
2023-01-07T01:47:48.081Z,101345.38
2023-01-07T01:50:24.823Z,101345.66
2023-01-07T01:53:00.275Z,101350.91
2023-01-07T01:55:35.375Z,101341.22
2023-01-07T01:58:09.274Z,101346.81
2023-01-07T02:00:38.047Z,101332.22
2023-01-07T02:03:12.846Z,101339.63
2023-01-07T02:05:45.486Z,101338.81
2023-01-07T02:08:15.166Z,101337.34
2023-01-07T02:10:44.489Z,101325.00
2023-01-07T02:13:52.907Z,101319.22
2023-01-07T02:16:38.868Z,101325.69
2023-01-07T02:19:46.040Z,101338.19
2023-01-07T02:22:45.355Z,101335.75
2023-01-07T02:25:58.252Z,101336.81
2023-01-07T02:29:20.647Z,101334.41
2023-01-07T02:32:17.714Z,101321.34
2023-01-07T02:35:04.325Z,101316.19
2023-01-07T02:37:46.225Z,101321.50
2023-01-07T02:40:25.335Z,101319.31
2023-01-07T02:43:06.770Z,101315.59
2023-01-07T02:45:45.414Z,101299.09
2023-01-07T02:48:18.524Z,101303.75
2023-01-07T02:50:47.027Z,101287.75
2023-01-07T02:53:20.693Z,101280.88
2023-01-07T02:56:06.530Z,101290.13
2023-01-07T02:59:10.657Z,101288.31
2023-01-07T03:02:09.900Z,101284.69
2023-01-07T03:05:08.179Z,101273.75
2023-01-07T03:07:59.359Z,101270.69
2023-01-07T03:10:39.085Z,101265.97
2023-01-07T03:13:14.388Z,101267.97
2023-01-07T03:15:49.885Z,101261.09
2023-01-07T03:18:26.541Z,101265.63
2023-01-07T03:21:03.840Z,101254.69
2023-01-07T03:23:32.950Z,101253.38
2023-01-07T03:26:07.211Z,101254.16
2023-01-07T03:28:41.546Z,101257.81
2023-01-07T03:31:15.488Z,101253.50
2023-01-07T03:33:53.323Z,101246.75
2023-01-07T03:36:31.812Z,101241.59
2023-01-07T03:39:02.819Z,101243.63
2023-01-07T03:41:48.956Z,101242.81
2023-01-07T03:44:17.233Z,101252.38
2023-01-07T03:46:45.919Z,101251.66
2023-01-07T03:49:14.439Z,101248.06
2023-01-07T03:51:44.088Z,101248.41
2023-01-07T03:54:12.412Z,101247.31
2023-01-07T03:56:40.713Z,101244.28
2023-01-07T03:59:09.051Z,101245.38
2023-01-07T04:01:37.435Z,101240.81
2023-01-07T04:04:06.162Z,101232.53
2023-01-07T04:06:34.488Z,101237.66
2023-01-07T04:09:04.755Z,101218.16
2023-01-07T04:11:33.078Z,101215.63
2023-01-07T04:14:01.637Z,101217.53
2023-01-07T04:16:30.344Z,101219.84
2023-01-07T04:18:58.740Z,101210.50
2023-01-07T04:21:26.991Z,101208.75
2023-01-07T04:23:55.373Z,101206.63
2023-01-07T04:26:25.050Z,101199.84
2023-01-07T04:28:53.414Z,101200.78
2023-01-07T04:31:22.051Z,101204.84
2023-01-07T04:33:50.396Z,101197.72
2023-01-07T04:36:18.856Z,101191.63
2023-01-07T04:38:47.311Z,101202.00
2023-01-07T04:41:15.925Z,101196.69
2023-01-07T04:43:45.642Z,101201.56
2023-01-07T04:46:14.008Z,101196.50
2023-01-07T04:48:42.327Z,101202.19
2023-01-07T04:51:10.963Z,101198.75
2023-01-07T04:53:39.219Z,101183.31
2023-01-07T04:56:08.620Z,101186.09
2023-01-07T04:58:36.921Z,101182.84
2023-01-07T05:01:07.237Z,101172.50
2023-01-07T05:03:35.716Z,101180.31
2023-01-07T05:06:04.395Z,101180.06
2023-01-07T05:08:32.973Z,101175.44
2023-01-07T05:11:02.158Z,101176.84
2023-01-07T05:13:31.915Z,101174.69
2023-01-07T05:16:00.406Z,101185.63
2023-01-07T05:18:30.431Z,101184.41
2023-01-07T05:20:58.989Z,101182.53
2023-01-07T05:23:27.313Z,101186.56
2023-01-07T05:25:55.608Z,101184.34
2023-01-07T05:28:24.209Z,101187.00
2023-01-07T05:30:52.553Z,101186.53
2023-01-07T05:33:20.902Z,101179.28
2023-01-07T05:35:50.719Z,101182.22
2023-01-07T05:38:21.325Z,101182.22
2023-01-07T05:40:50.703Z,101175.66
2023-01-07T05:43:19.635Z,101176.06
2023-01-07T05:45:48.390Z,101176.34
2023-01-07T05:48:16.988Z,101172.56
2023-01-07T05:50:45.717Z,101173.59
2023-01-07T05:53:15.362Z,101178.41
2023-01-07T05:55:43.674Z,101182.72
2023-01-07T05:58:11.939Z,101184.44
2023-01-07T06:00:40.295Z,101182.56
2023-01-07T06:03:08.918Z,101177.41
2023-01-07T06:05:37.355Z,101185.25
2023-01-07T06:08:06.542Z,101179.72
2023-01-07T06:10:36.600Z,101192.03
2023-01-07T06:13:05.174Z,101176.69
2023-01-07T06:15:33.625Z,101185.63
2023-01-07T06:18:02.172Z,101184.63
2023-01-07T06:20:34.640Z,101176.19
2023-01-07T06:23:05.061Z,101167.31
2023-01-07T06:25:33.380Z,101164.53
2023-01-07T06:28:03.098Z,101164.53
2023-01-07T06:30:31.397Z,101181.50
2023-01-07T06:33:00.376Z,101159.13
2023-01-07T06:35:28.921Z,101167.91
2023-01-07T06:37:57.321Z,101171.34
2023-01-07T06:40:26.041Z,101165.16
2023-01-07T06:42:54.764Z,101156.00
2023-01-07T06:45:24.519Z,101159.69
2023-01-07T06:47:52.881Z,101160.56
2023-01-07T06:50:21.251Z,101152.41
2023-01-07T06:52:49.816Z,101150.47
2023-01-07T06:55:18.339Z,101150.13
2023-01-07T06:57:46.811Z,101155.19
2023-01-07T07:00:16.396Z,101151.31
2023-01-07T07:02:47.714Z,101158.38
2023-01-07T07:05:16.377Z,101159.03
2023-01-07T07:07:44.713Z,101152.09
2023-01-07T07:10:13.467Z,101150.94
2023-01-07T07:12:42.023Z,101158.59
2023-01-07T07:15:12.417Z,101147.53
2023-01-07T07:17:40.698Z,101142.97
2023-01-07T07:20:12.355Z,101146.59
2023-01-07T07:22:46.478Z,101141.25
2023-01-07T07:25:15.487Z,101143.91
2023-01-07T07:27:47.420Z,101144.66
2023-01-07T07:30:16.997Z,101138.28
2023-01-07T07:32:45.425Z,101148.78
2023-01-07T07:35:15.326Z,101147.56
2023-01-07T07:37:43.608Z,101145.63
2023-01-07T07:40:13.105Z,101138.03
2023-01-07T07:43:10.724Z,101153.84
2023-01-07T07:45:29.743Z,101149.28
2023-01-07T07:47:58.178Z,101142.22
2023-01-07T07:50:27.966Z,101137.81
2023-01-07T07:52:56.864Z,101138.69
2023-01-07T07:55:26.436Z,101141.97
2023-01-07T07:57:55.855Z,101138.44
2023-01-07T08:00:24.867Z,101139.00
2023-01-07T08:02:53.647Z,101147.66
2023-01-07T08:05:22.944Z,101135.16
2023-01-07T08:07:52.993Z,101129.75
2023-01-07T08:10:21.976Z,101138.41
2023-01-07T08:12:51.030Z,101136.59
2023-01-07T08:15:20.593Z,101131.06
2023-01-07T08:17:53.205Z,101132.31
2023-01-07T08:20:25.377Z,101132.97
2023-01-07T08:22:55.742Z,101118.84
2023-01-07T08:25:24.067Z,101122.38
2023-01-07T08:27:56.448Z,101121.63
2023-01-07T08:30:26.591Z,101123.91
2023-01-07T08:32:55.407Z,101119.06
2023-01-07T08:35:24.564Z,101106.56
2023-01-07T08:38:01.479Z,101121.13
2023-01-07T08:40:29.973Z,101111.22
2023-01-07T08:43:01.046Z,101116.25
2023-01-07T08:45:30.113Z,101110.72
2023-01-07T08:47:59.651Z,101112.31
2023-01-07T08:50:30.433Z,101104.78
2023-01-07T08:53:03.541Z,101106.09
2023-01-07T08:55:31.975Z,101103.44
2023-01-07T08:58:01.125Z,101103.03
2023-01-07T09:00:29.541Z,101104.66
2023-01-07T09:02:57.923Z,101100.72
2023-01-07T09:05:29.327Z,101108.69
2023-01-07T09:07:57.925Z,101106.53
2023-01-07T09:10:27.734Z,101096.38
2023-01-07T09:12:56.216Z,101100.38
2023-01-07T09:15:24.657Z,101095.47
2023-01-07T09:17:53.151Z,101098.88
2023-01-07T09:20:22.428Z,101100.19
2023-01-07T09:22:52.145Z,101097.88
2023-01-07T09:25:20.741Z,101107.00
2023-01-07T09:27:52.803Z,101105.22
2023-01-07T09:30:21.633Z,101102.56
2023-01-07T09:32:50.155Z,101100.31
2023-01-07T09:35:20.175Z,101102.69
2023-01-07T09:37:48.492Z,101103.44
2023-01-07T09:40:26.791Z,101100.13
2023-01-07T09:43:07.339Z,101107.19
2023-01-07T09:45:41.980Z,101109.78
2023-01-07T09:48:22.118Z,101106.13
2023-01-07T09:50:58.487Z,101105.03
2023-01-07T09:53:34.523Z,101109.03
2023-01-07T09:56:10.599Z,101112.88
2023-01-07T09:58:51.210Z,101107.09
2023-01-07T10:01:31.514Z,101113.41
2023-01-07T10:04:21.259Z,101105.59
2023-01-07T10:07:02.124Z,101108.28
2023-01-07T10:09:45.902Z,101106.56
2023-01-07T10:12:26.640Z,101106.22
2023-01-07T10:15:16.325Z,101105.91
2023-01-07T10:18:25.996Z,101100.78
2023-01-07T10:21:09.721Z,101097.56
2023-01-07T10:23:43.345Z,101097.56
2023-01-07T10:26:29.921Z,101090.06
2023-01-07T10:29:07.752Z,101084.81
2023-01-07T10:31:38.378Z,101086.81
2023-01-07T10:34:17.069Z,101083.63
2023-01-07T10:37:02.091Z,101078.91
2023-01-07T10:39:45.006Z,101077.97
2023-01-07T10:42:27.145Z,101070.00
2023-01-07T10:45:44.211Z,101069.91
2023-01-07T10:48:54.967Z,101073.63
2023-01-07T10:52:00.912Z,101059.34
2023-01-07T10:54:47.553Z,101064.88
2023-01-07T10:57:21.247Z,101071.47
2023-01-07T10:59:51.878Z,101060.53
2023-01-07T11:02:27.426Z,101070.72
2023-01-07T11:04:59.118Z,101064.69
2023-01-07T11:07:43.512Z,101052.97
2023-01-07T11:10:17.003Z,101048.41
2023-01-07T11:12:51.147Z,101039.72
2023-01-07T11:15:27.010Z,101047.09
2023-01-07T11:18:00.862Z,101050.59
2023-01-07T11:20:48.058Z,101035.09
2023-01-07T11:23:33.564Z,101039.91
2023-01-07T11:26:17.312Z,101035.50
2023-01-07T11:28:54.000Z,101037.69
2023-01-07T11:31:24.433Z,101027.16
2023-01-07T11:34:02.865Z,101036.75
2023-01-07T11:36:43.820Z,101030.28
2023-01-07T11:39:20.561Z,101027.88
2023-01-07T11:41:58.074Z,101034.25
2023-01-07T11:44:27.966Z,101028.44
2023-01-07T11:46:56.962Z,101031.03
2023-01-07T11:49:31.837Z,101027.97
2023-01-07T11:52:01.756Z,101023.63
2023-01-07T11:54:31.926Z,101030.72
2023-01-07T11:57:14.674Z,101020.31
2023-01-07T11:59:42.981Z,101017.47
2023-01-07T12:02:27.134Z,101013.69
2023-01-07T12:05:23.548Z,101008.34
2023-01-07T12:07:53.539Z,101014.53
2023-01-07T12:10:33.845Z,101005.56
2023-01-07T12:13:06.455Z,101016.28
2023-01-07T12:15:49.545Z,101001.59
2023-01-07T12:18:43.263Z,101007.25
2023-01-07T12:21:36.593Z,101007.88
2023-01-07T12:24:43.506Z,101003.44
2023-01-07T12:27:29.472Z,101000.75
2023-01-07T12:30:30.963Z,100990.78
2023-01-07T12:33:18.569Z,100994.25
2023-01-07T12:35:47.147Z,100984.47
2023-01-07T12:38:25.406Z,100974.72
2023-01-07T12:41:01.505Z,100989.09
2023-01-07T12:43:38.650Z,100979.56
2023-01-07T12:46:12.681Z,100977.88
2023-01-07T12:48:50.479Z,100969.91
2023-01-07T12:51:26.030Z,100967.53
2023-01-07T12:54:02.918Z,100967.94
2023-01-07T12:56:38.662Z,100968.44
2023-01-07T12:59:46.419Z,100957.13
2023-01-07T13:02:22.135Z,100942.47
2023-01-07T13:05:05.897Z,100948.28
2023-01-07T13:07:47.187Z,100947.03
2023-01-07T13:10:24.785Z,100935.66
2023-01-07T13:12:59.905Z,100927.31
2023-01-07T13:15:31.353Z,100933.28
2023-01-07T13:18:09.439Z,100926.91
2023-01-07T13:21:00.610Z,100922.53
2023-01-07T13:23:52.439Z,100923.50
2023-01-07T13:26:35.798Z,100917.03
2023-01-07T13:29:32.098Z,100914.72
2023-01-07T13:32:37.221Z,100912.16
2023-01-07T13:35:36.251Z,100917.88
2023-01-07T13:38:28.111Z,100914.19
2023-01-07T13:41:19.183Z,100914.94
2023-01-07T13:44:55.534Z,100915.19
2023-01-07T13:47:28.350Z,100903.81
2023-01-07T13:50:00.468Z,100901.78
2023-01-07T13:52:33.348Z,100898.09
2023-01-07T13:55:04.057Z,100896.28
2023-01-07T13:57:44.302Z,100897.13
2023-01-07T14:00:48.484Z,100891.28
2023-01-07T14:03:35.942Z,100891.38
2023-01-07T14:06:40.105Z,100896.28
2023-01-07T14:09:27.767Z,100901.25
2023-01-07T14:12:33.332Z,100894.06
2023-01-07T14:15:51.159Z,100905.91
2023-01-07T14:18:58.046Z,100902.94
2023-01-07T14:21:50.632Z,100901.81
2023-01-07T14:24:48.336Z,100896.53
2023-01-07T14:27:51.545Z,100892.41
2023-01-07T14:30:24.552Z,100896.88
2023-01-07T14:33:03.484Z,100894.03
2023-01-07T14:35:37.716Z,100900.59
2023-01-07T14:39:06.450Z,100908.78
2023-01-07T14:41:34.983Z,100906.03
2023-01-07T14:44:30.500Z,100905.41
2023-01-07T14:46:59.079Z,100905.91
2023-01-07T14:50:02.323Z,100901.31
2023-01-07T14:53:22.435Z,100903.91
2023-01-07T14:56:31.247Z,100896.41
2023-01-07T14:59:33.058Z,100897.59
2023-01-07T15:02:59.132Z,100901.13
2023-01-07T15:06:11.367Z,100893.94
2023-01-07T15:09:08.500Z,100890.50
2023-01-07T15:11:58.746Z,100888.69
2023-01-07T15:14:51.809Z,100886.47
2023-01-07T15:17:21.885Z,100875.31
2023-01-07T15:19:50.582Z,100878.63
2023-01-07T15:23:09.950Z,100875.66
2023-01-07T15:25:52.398Z,100873.19
2023-01-07T15:28:37.525Z,100869.66
2023-01-07T15:31:18.903Z,100885.69
2023-01-07T15:34:07.378Z,100872.41
2023-01-07T15:36:42.981Z,100867.84
2023-01-07T15:39:24.123Z,100866.22
2023-01-07T15:41:55.316Z,100863.84
2023-01-07T15:44:29.321Z,100863.66
2023-01-07T15:46:59.302Z,100861.25
2023-01-07T15:49:28.129Z,100861.16
2023-01-07T15:51:58.886Z,100867.16
2023-01-07T15:54:33.259Z,100860.41
2023-01-07T15:57:11.274Z,100845.00
2023-01-07T15:59:45.744Z,100846.72
2023-01-07T16:02:25.554Z,100836.88
2023-01-07T16:04:57.008Z,100842.44
2023-01-07T16:07:30.444Z,100837.06
2023-01-07T16:10:01.496Z,100836.63
2023-01-07T16:12:37.691Z,100825.81
2023-01-07T16:15:31.202Z,100821.88
2023-01-07T16:18:03.434Z,100820.16
2023-01-07T16:20:37.056Z,100821.22
2023-01-07T16:23:23.607Z,100812.97
2023-01-07T16:26:01.988Z,100808.13
2023-01-07T16:28:36.386Z,100814.91
2023-01-07T16:31:11.467Z,100812.00
2023-01-07T16:33:41.707Z,100802.44
2023-01-07T16:36:17.789Z,100794.28
2023-01-07T16:38:49.283Z,100793.56
2023-01-07T16:41:25.545Z,100800.41
2023-01-07T16:43:55.368Z,100793.75
2023-01-07T16:46:27.105Z,100783.88
2023-01-07T16:49:21.942Z,100791.06
2023-01-07T16:51:53.609Z,100787.88
2023-01-07T16:54:32.395Z,100792.38
2023-01-07T16:57:04.712Z,100787.38
2023-01-07T16:59:36.663Z,100785.31
2023-01-07T17:02:23.516Z,100787.63
2023-01-07T17:04:52.101Z,100773.38
2023-01-07T17:07:26.148Z,100779.59
2023-01-07T17:09:56.922Z,100774.88
2023-01-07T17:12:31.132Z,100774.25
2023-01-07T17:15:00.525Z,100776.19
2023-01-07T17:17:33.014Z,100770.31
2023-01-07T17:20:19.301Z,100765.59
2023-01-07T17:22:49.623Z,100764.63
2023-01-07T17:25:26.337Z,100759.88
2023-01-07T17:28:01.681Z,100754.63
2023-01-07T17:30:35.650Z,100749.06
2023-01-07T17:33:04.512Z,100752.16
2023-01-07T17:35:32.824Z,100747.66
2023-01-07T17:38:01.070Z,100734.25
2023-01-07T17:40:29.433Z,100737.91
2023-01-07T17:43:16.510Z,100731.78
2023-01-07T17:45:44.832Z,100722.03
2023-01-07T17:48:15.060Z,100715.97
2023-01-07T17:50:44.129Z,100708.53
2023-01-07T17:53:23.442Z,100712.19
2023-01-07T17:55:52.192Z,100712.69
2023-01-07T17:58:28.783Z,100699.66
2023-01-07T18:00:59.589Z,100695.25
2023-01-07T18:03:29.465Z,100691.63
2023-01-07T18:05:58.023Z,100691.13
2023-01-07T18:08:26.465Z,100693.19
2023-01-07T18:11:13.972Z,100685.53
2023-01-07T18:13:43.879Z,100680.66
2023-01-07T18:16:15.542Z,100676.47
2023-01-07T18:18:43.881Z,100679.41
2023-01-07T18:21:13.579Z,100684.50
2023-01-07T18:23:42.077Z,100676.84
2023-01-07T18:26:11.341Z,100684.50
2023-01-07T18:28:39.800Z,100684.63
2023-01-07T18:31:10.011Z,100682.56
2023-01-07T18:33:38.416Z,100675.16
2023-01-07T18:36:07.701Z,100683.19
2023-01-07T18:38:35.988Z,100676.72
2023-01-07T18:41:04.468Z,100666.97
2023-01-07T18:43:32.991Z,100666.47
2023-01-07T18:46:01.676Z,100667.19
2023-01-07T18:48:31.370Z,100660.53
2023-01-07T18:50:59.705Z,100659.44
2023-01-07T18:53:28.393Z,100649.59
2023-01-07T18:56:02.583Z,100645.94
2023-01-07T18:58:31.243Z,100655.06
2023-01-07T19:01:04.891Z,100644.34
2023-01-07T19:03:35.264Z,100647.03
2023-01-07T19:06:08.972Z,100641.44
2023-01-07T19:08:37.898Z,100627.09
2023-01-07T19:11:08.677Z,100625.38
2023-01-07T19:13:37.801Z,100627.31
2023-01-07T19:16:08.694Z,100621.22
2023-01-07T19:18:38.740Z,100625.59
2023-01-07T19:21:11.659Z,100627.66
2023-01-07T19:23:40.411Z,100618.78
2023-01-07T19:26:12.117Z,100621.34
2023-01-07T19:28:40.398Z,100617.06
2023-01-07T19:31:10.863Z,100608.28
2023-01-07T19:33:40.907Z,100605.28
2023-01-07T19:36:12.264Z,100608.06
2023-01-07T19:38:41.543Z,100593.25
2023-01-07T19:41:15.578Z,100587.88
2023-01-07T19:43:45.789Z,100583.50
2023-01-07T19:46:15.949Z,100578.91
2023-01-07T19:48:48.612Z,100569.16
2023-01-07T19:51:17.138Z,100556.72
2023-01-07T19:53:47.779Z,100554.03
2023-01-07T19:56:16.327Z,100548.69
2023-01-07T19:58:44.762Z,100555.97
2023-01-07T20:01:17.836Z,100558.25
2023-01-07T20:03:47.768Z,100559.09
2023-01-07T20:06:18.775Z,100563.84
2023-01-07T20:08:47.762Z,100564.47
2023-01-07T20:11:17.771Z,100558.03
2023-01-07T20:13:47.880Z,100557.66
2023-01-07T20:16:19.061Z,100557.84
2023-01-07T20:18:50.883Z,100542.03
2023-01-07T20:21:22.072Z,100539.09
2023-01-07T20:23:51.229Z,100527.34
2023-01-07T20:26:23.667Z,100531.06
2023-01-07T20:28:51.998Z,100526.19
2023-01-07T20:31:23.385Z,100525.59
2023-01-07T20:33:55.771Z,100519.38
2023-01-07T20:36:25.895Z,100517.06
2023-01-07T20:38:54.342Z,100514.31
2023-01-07T20:41:25.539Z,100507.22
2023-01-07T20:43:55.938Z,100511.31
2023-01-07T20:46:25.763Z,100512.16
2023-01-07T20:48:56.164Z,100515.63
2023-01-07T20:51:25.007Z,100509.63
2023-01-07T20:53:53.493Z,100514.63
2023-01-07T20:56:24.376Z,100507.31
2023-01-07T20:58:53.109Z,100516.94
2023-01-07T21:01:23.278Z,100507.97
2023-01-07T21:03:51.999Z,100510.69
2023-01-07T21:06:24.458Z,100509.56
2023-01-07T21:08:52.608Z,100508.28
2023-01-07T21:11:23.992Z,100500.38
2023-01-07T21:13:56.045Z,100504.88
2023-01-07T21:16:25.500Z,100493.72
2023-01-07T21:18:53.857Z,100488.47
2023-01-07T21:21:25.794Z,100485.69
2023-01-07T21:23:55.377Z,100478.28
2023-01-07T21:26:24.955Z,100465.75
2023-01-07T21:28:56.120Z,100460.41
2023-01-07T21:31:28.934Z,100458.13
2023-01-07T21:33:58.658Z,100450.94
2023-01-07T21:36:29.594Z,100448.75
2023-01-07T21:39:00.421Z,100444.16
2023-01-07T21:41:30.186Z,100438.81
2023-01-07T21:43:58.933Z,100439.03
2023-01-07T21:46:27.568Z,100425.81
2023-01-07T21:48:56.562Z,100434.06
2023-01-07T21:51:28.501Z,100421.91
2023-01-07T21:53:58.444Z,100421.44
2023-01-07T21:56:32.247Z,100409.59
2023-01-07T21:59:01.586Z,100410.34
2023-01-07T22:01:30.729Z,100408.88
2023-01-07T22:04:00.575Z,100406.22
2023-01-07T22:06:32.893Z,100414.25
2023-01-07T22:09:04.968Z,100416.16
2023-01-07T22:11:34.660Z,100415.94
2023-01-07T22:14:03.489Z,100418.09
2023-01-07T22:16:33.694Z,100416.91
2023-01-07T22:19:02.815Z,100414.06
2023-01-07T22:21:33.515Z,100405.94
2023-01-07T22:24:01.817Z,100401.06
2023-01-07T22:26:30.117Z,100387.56
2023-01-07T22:29:03.472Z,100393.88
2023-01-07T22:31:36.482Z,100365.91
2023-01-07T22:34:05.935Z,100360.91
2023-01-07T22:36:46.503Z,100359.69
2023-01-07T22:39:23.735Z,100353.28
2023-01-07T22:41:57.979Z,100355.19
2023-01-07T22:44:34.935Z,100355.75
2023-01-07T22:47:05.330Z,100369.13
2023-01-07T22:49:35.079Z,100366.66
2023-01-07T22:52:06.369Z,100360.81
2023-01-07T22:54:36.125Z,100355.25
2023-01-07T22:57:08.809Z,100356.84
2023-01-07T22:59:37.332Z,100365.00
2023-01-07T23:02:07.898Z,100359.00
2023-01-07T23:04:36.138Z,100360.59
2023-01-07T23:07:05.835Z,100371.50
2023-01-07T23:09:34.393Z,100368.13
2023-01-07T23:12:03.787Z,100360.56
2023-01-07T23:14:32.553Z,100359.88
2023-01-07T23:17:00.832Z,100345.25
2023-01-07T23:19:30.844Z,100364.66
2023-01-07T23:22:00.347Z,100351.53
2023-01-07T23:24:29.976Z,100338.41
2023-01-07T23:26:58.358Z,100343.88
2023-01-07T23:29:26.817Z,100340.34
2023-01-07T23:31:55.775Z,100325.44
2023-01-07T23:34:24.054Z,100333.41
2023-01-07T23:36:52.403Z,100326.34
2023-01-07T23:39:20.876Z,100322.50
2023-01-07T23:41:50.676Z,100325.06
2023-01-07T23:44:19.152Z,100319.19
2023-01-07T23:46:48.019Z,100310.28
2023-01-07T23:49:16.344Z,100302.28
2023-01-07T23:51:47.010Z,100300.16
2023-01-07T23:54:15.547Z,100302.69
2023-01-07T23:56:44.210Z,100298.19
2023-01-07T23:59:13.989Z,100293.66
